メインページ
METAR-TAF:

METAR-TAF

空港 :

プリンス・サイード・イブラヒーム国際空港

モロニ, コモロ

緯度: 11-32S, 経度: 043-16E, 海抜: 29m

現時点の気象観測

当レポートは1時間48分前の14:00(UTC)に作成
南/南西の風 9kt、から西/南西の間で変化する
気温 28°C
湿度 66%
気圧 1015 hPa
視程10km以上
高度2700ftの雲は散在している
小雨

METAR: FMCH 251400Z 21009KT 170V240 9999 -RA FEW0520TCU SCT027 28/21 Q1015 NOSIG

時間: 18:48 (15:48 UTC)

予報

当レポートは4時間48分前の11:00(UTC)に作成
予報は25日の 12時(UTC)から 26日の 18時(UTC)まで有効
南/南西の風 12kt
視程10km以上
高度2000ftの雲はほとんどない
高度3000ftの雲は散在している
25日の 16時(UTC)から 25日の 18時(UTC)まで徐々に
の風 3kt
26日の 04時(UTC)から 26日の 06時(UTC)まで徐々に
南/南西の風 10kt

TAF: FMCH 251100Z 2512/2618 20012KT 9999 FEW020 SCT030 BECMG 2516/2518 09003KT BECMG 2604/2606 20010KT

4,000以上の空港の気象観測と天気予報(METAR報とTAF報)

利用可能な観測所は地図上に黄色い丸と赤い丸で示す。

丸の上にカーソルを重ねると観測所名を参照できる。

次にクリックすると気象観測と天気予報を参照できる。

マップの切り替え:黒色「×」印の緑ボタンをクリックして拡大、「-」印の緑ボタンをクリックして縮小、緑色の三角印をクリックして隣りの地図に切り替え


METAR-TAF: